createdAt,value
2023-02-12T00:02:00.742Z,14.87
2023-02-12T00:05:02.161Z,14.87
2023-02-12T00:08:03.733Z,13.83
2023-02-12T00:11:09.455Z,14.70
2023-02-12T00:14:10.982Z,14.33
2023-02-12T00:17:12.334Z,14.13
2023-02-12T00:20:13.768Z,13.77
2023-02-12T00:23:15.227Z,13.60
2023-02-12T00:26:19.423Z,14.23
2023-02-12T00:29:23.524Z,14.40
2023-02-12T00:32:25.202Z,14.10
2023-02-12T00:35:26.620Z,15.20
2023-02-12T00:38:28.085Z,15.67
2023-02-12T00:41:29.648Z,16.70
2023-02-12T00:44:31.186Z,15.20
2023-02-12T00:47:32.579Z,14.93
2023-02-12T00:50:33.966Z,15.93
2023-02-12T00:53:35.464Z,15.67
2023-02-12T00:56:36.835Z,15.60
2023-02-12T00:59:40.111Z,14.53
2023-02-12T01:02:41.688Z,15.77
2023-02-12T01:05:43.526Z,14.33
2023-02-12T01:08:44.914Z,14.90
2023-02-12T01:11:46.308Z,14.63
2023-02-12T01:14:47.830Z,16.03
2023-02-12T01:17:53.116Z,16.93
2023-02-12T01:20:54.519Z,18.13
2023-02-12T01:23:58.601Z,17.63
2023-02-12T01:26:59.974Z,15.70
2023-02-12T01:30:04.177Z,17.20
2023-02-12T01:33:05.560Z,18.27
2023-02-12T01:36:07.627Z,17.83
2023-02-12T01:39:11.992Z,17.10
2023-02-12T01:42:15.462Z,16.87
2023-02-12T01:45:16.850Z,16.97
2023-02-12T01:48:20.446Z,17.83
2023-02-12T01:51:23.800Z,17.27
2023-02-12T01:54:26.489Z,17.83
2023-02-12T01:57:32.393Z,18.23
2023-02-12T02:00:33.895Z,18.67
2023-02-12T02:03:38.074Z,18.00
2023-02-12T02:06:59.729Z,18.07
2023-02-12T02:10:01.766Z,17.23
2023-02-12T02:13:21.980Z,18.40
2023-02-12T02:16:27.927Z,18.93
2023-02-12T02:20:03.846Z,18.00
2023-02-12T02:23:30.584Z,18.33
2023-02-12T02:27:05.049Z,18.43
2023-02-12T02:30:12.574Z,18.30
2023-02-12T02:33:37.821Z,17.30
2023-02-12T02:37:07.206Z,17.83
2023-02-12T02:40:14.471Z,16.10
2023-02-12T02:43:22.289Z,16.77
2023-02-12T02:46:34.769Z,15.83
2023-02-12T02:49:45.458Z,16.03
2023-02-12T02:52:51.947Z,17.40
2023-02-12T02:55:56.947Z,17.43
2023-02-12T02:59:03.759Z,17.50
2023-02-12T03:02:12.547Z,18.17
2023-02-12T03:05:23.579Z,17.33
2023-02-12T03:08:34.147Z,18.20
2023-02-12T03:11:36.000Z,17.50
2023-02-12T03:14:52.653Z,16.90
2023-02-12T03:17:55.190Z,16.63
2023-02-12T03:21:08.157Z,16.60
2023-02-12T03:24:24.056Z,17.20
2023-02-12T03:27:34.778Z,17.10
2023-02-12T03:31:13.189Z,17.17
2023-02-12T03:34:26.798Z,17.70
2023-02-12T03:37:35.855Z,17.63
2023-02-12T03:40:44.274Z,17.77
2023-02-12T03:44:10.831Z,17.07
2023-02-12T03:47:29.375Z,16.10
2023-02-12T03:50:40.444Z,19.33
2023-02-12T03:53:44.034Z,21.43
2023-02-12T03:56:53.947Z,22.47
2023-02-12T03:59:55.367Z,21.77
2023-02-12T04:02:56.765Z,22.40
2023-02-12T04:05:58.179Z,22.33
2023-02-12T04:09:05.445Z,22.23
2023-02-12T04:12:32.603Z,21.03
2023-02-12T04:15:57.455Z,20.83
2023-02-12T04:18:59.347Z,19.60
2023-02-12T04:22:15.200Z,18.90
2023-02-12T04:25:41.225Z,18.93
2023-02-12T04:28:59.592Z,18.70
2023-02-12T04:32:08.015Z,19.37
2023-02-12T04:35:23.730Z,19.17
2023-02-12T04:38:58.980Z,18.43
2023-02-12T04:42:01.446Z,17.80
2023-02-12T04:45:03.075Z,19.00
2023-02-12T04:48:05.510Z,18.67
2023-02-12T04:51:06.915Z,20.23
2023-02-12T04:54:08.504Z,19.90
2023-02-12T04:57:09.869Z,20.53
2023-02-12T05:00:15.058Z,20.23
2023-02-12T05:03:16.448Z,19.87
2023-02-12T05:06:18.398Z,19.27
2023-02-12T05:09:20.625Z,20.13
2023-02-12T05:12:22.130Z,20.37
2023-02-12T05:15:23.584Z,17.17
2023-02-12T05:18:25.445Z,17.33
2023-02-12T05:21:26.838Z,17.90
2023-02-12T05:24:28.254Z,16.97
2023-02-12T05:27:29.674Z,17.07
2023-02-12T05:30:31.036Z,17.40
2023-02-12T05:33:32.768Z,16.23
2023-02-12T05:36:34.152Z,16.53
2023-02-12T05:39:35.532Z,17.13
2023-02-12T05:42:36.974Z,15.97
2023-02-12T05:45:41.088Z,16.83
2023-02-12T05:48:42.488Z,16.00
2023-02-12T05:51:44.046Z,16.13
2023-02-12T05:54:45.427Z,15.93
2023-02-12T05:57:46.888Z,15.07
2023-02-12T06:00:48.285Z,15.50
2023-02-12T06:03:49.773Z,15.60
2023-02-12T06:06:52.038Z,15.53
2023-02-12T06:09:54.881Z,15.57
2023-02-12T06:12:56.304Z,15.77
2023-02-12T06:15:58.700Z,15.43
2023-02-12T06:19:02.808Z,15.30
2023-02-12T06:22:04.318Z,14.40
2023-02-12T06:25:06.217Z,15.57
2023-02-12T06:28:07.658Z,15.27
2023-02-12T06:31:19.964Z,15.50
2023-02-12T06:34:21.525Z,15.70
2023-02-12T06:37:22.966Z,15.37
2023-02-12T06:40:24.378Z,16.27
2023-02-12T06:43:25.760Z,16.47
2023-02-12T06:46:27.294Z,16.60
2023-02-12T06:49:28.692Z,16.40
2023-02-12T06:52:30.113Z,17.17
2023-02-12T06:55:31.516Z,16.70
2023-02-12T06:58:32.950Z,17.20
2023-02-12T07:01:34.412Z,18.17
2023-02-12T07:04:38.033Z,16.13
2023-02-12T07:07:39.401Z,17.80
2023-02-12T07:10:40.927Z,17.47
2023-02-12T07:13:43.546Z,15.87
2023-02-12T07:16:45.049Z,17.90
2023-02-12T07:19:46.461Z,16.43
2023-02-12T07:22:47.931Z,14.67
2023-02-12T07:26:01.214Z,14.17
2023-02-12T07:29:02.601Z,14.13
2023-02-12T07:32:04.158Z,14.63
2023-02-12T07:35:06.019Z,15.07
2023-02-12T07:38:07.592Z,16.50
2023-02-12T07:41:20.781Z,18.03
2023-02-12T07:44:22.206Z,16.67
2023-02-12T07:47:23.636Z,16.90
2023-02-12T07:50:25.096Z,17.33
2023-02-12T07:53:26.477Z,16.87
2023-02-12T07:56:32.317Z,17.33
2023-02-12T07:59:33.742Z,17.13
2023-02-12T08:02:35.284Z,17.97
2023-02-12T08:05:36.806Z,17.47
2023-02-12T08:08:41.087Z,17.80
2023-02-12T08:11:43.655Z,19.70
2023-02-12T08:14:45.050Z,18.20
2023-02-12T08:17:46.437Z,18.17
2023-02-12T08:20:47.868Z,19.20
2023-02-12T08:23:50.640Z,20.33
2023-02-12T08:26:52.386Z,19.40
2023-02-12T08:29:53.801Z,19.70
2023-02-12T08:32:55.163Z,18.53
2023-02-12T08:36:04.154Z,18.80
2023-02-12T08:39:07.319Z,18.93
2023-02-12T08:42:09.502Z,18.57
2023-02-12T08:45:10.917Z,17.87
2023-02-12T08:48:12.307Z,18.07
2023-02-12T08:51:19.506Z,17.30
2023-02-12T08:54:23.836Z,17.80
2023-02-12T08:57:25.217Z,20.23
2023-02-12T09:00:26.712Z,19.13
2023-02-12T09:03:28.541Z,20.80
2023-02-12T09:06:33.095Z,20.47
2023-02-12T09:09:34.558Z,20.07
2023-02-12T09:12:35.928Z,20.13
2023-02-12T09:15:38.456Z,20.70
2023-02-12T09:18:40.085Z,21.07
2023-02-12T09:21:42.446Z,21.17
2023-02-12T09:24:43.855Z,21.30
2023-02-12T09:27:45.424Z,21.37
2023-02-12T09:30:46.994Z,20.40
2023-02-12T09:33:52.270Z,21.80
2023-02-12T09:36:55.475Z,21.33
2023-02-12T09:39:56.969Z,20.63
2023-02-12T09:43:03.311Z,21.67
2023-02-12T09:46:21.164Z,21.87
2023-02-12T09:49:53.319Z,22.20
2023-02-12T09:52:57.879Z,21.63
2023-02-12T09:55:59.370Z,20.13
2023-02-12T09:59:04.109Z,22.17
2023-02-12T10:02:16.932Z,22.13
2023-02-12T10:05:35.073Z,22.13
2023-02-12T10:08:48.535Z,21.57
2023-02-12T10:12:14.285Z,20.80
2023-02-12T10:15:34.992Z,21.20
2023-02-12T10:18:49.993Z,19.87
2023-02-12T10:22:56.562Z,21.00
2023-02-12T10:26:09.984Z,21.43
2023-02-12T10:29:19.298Z,19.60
2023-02-12T10:32:28.316Z,21.57
2023-02-12T10:35:30.758Z,20.53
2023-02-12T10:38:39.393Z,19.77
2023-02-12T10:41:49.421Z,18.43
2023-02-12T10:44:51.013Z,19.30
2023-02-12T10:48:01.666Z,17.83
2023-02-12T10:51:27.716Z,18.90
2023-02-12T10:54:35.603Z,18.67
2023-02-12T10:57:38.970Z,18.07
2023-02-12T11:00:40.414Z,18.03
2023-02-12T11:03:41.972Z,17.07
2023-02-12T11:06:57.433Z,15.90
2023-02-12T11:09:58.925Z,16.63
2023-02-12T11:13:01.751Z,16.40
2023-02-12T11:16:03.806Z,15.03
2023-02-12T11:19:07.749Z,15.53
2023-02-12T11:22:18.556Z,16.23
2023-02-12T11:25:21.710Z,15.43
2023-02-12T11:28:23.257Z,17.83
2023-02-12T11:31:30.170Z,16.10
2023-02-12T11:34:31.695Z,16.97
2023-02-12T11:37:36.400Z,13.10
2023-02-12T11:40:37.892Z,12.77
2023-02-12T11:43:39.416Z,13.50
2023-02-12T11:46:54.084Z,11.83
2023-02-12T11:50:02.246Z,11.23
2023-02-12T11:53:09.703Z,11.07
2023-02-12T11:56:13.058Z,10.77
2023-02-12T11:59:34.945Z,10.17
2023-02-12T12:02:39.069Z,9.50
2023-02-12T12:05:46.488Z,9.40
2023-02-12T12:09:00.155Z,8.37
2023-02-12T12:12:19.076Z,6.07
2023-02-12T12:15:41.551Z,6.37
2023-02-12T12:19:10.965Z,5.03
2023-02-12T12:22:57.931Z,6.33
2023-02-12T12:26:07.047Z,6.10
2023-02-12T12:29:22.125Z,4.40
2023-02-12T12:32:26.417Z,4.53
2023-02-12T12:35:44.095Z,4.73
2023-02-12T12:39:01.204Z,4.93
2023-02-12T12:42:33.726Z,4.40
2023-02-12T12:45:54.499Z,4.47
2023-02-12T12:49:40.515Z,4.60
2023-02-12T12:53:10.587Z,4.77
2023-02-12T12:56:23.901Z,5.23
2023-02-12T13:00:12.813Z,4.40
2023-02-12T13:03:20.434Z,4.67
2023-02-12T13:06:30.717Z,5.10
2023-02-12T13:09:40.681Z,5.20
2023-02-12T13:13:06.571Z,5.10
2023-02-12T13:16:30.751Z,4.57
2023-02-12T13:19:38.109Z,4.90
2023-02-12T13:23:01.435Z,5.83
2023-02-12T13:26:41.257Z,4.80
2023-02-12T13:29:59.573Z,4.20
2023-02-12T13:33:33.200Z,4.37
2023-02-12T13:36:37.593Z,5.00
2023-02-12T13:39:43.389Z,4.40
2023-02-12T13:42:55.679Z,4.27
2023-02-12T13:46:07.100Z,4.43
2023-02-12T13:49:30.514Z,5.20
2023-02-12T13:52:40.482Z,5.70
2023-02-12T13:55:52.962Z,5.77
2023-02-12T13:58:56.148Z,5.67
2023-02-12T14:02:03.952Z,6.20
2023-02-12T14:05:21.145Z,6.03
2023-02-12T14:08:42.370Z,5.97
2023-02-12T14:11:52.938Z,6.23
2023-02-12T14:15:04.077Z,6.07
2023-02-12T14:18:25.607Z,5.30
2023-02-12T14:21:29.995Z,5.80
2023-02-12T14:24:51.430Z,6.10
2023-02-12T14:28:06.228Z,5.77
2023-02-12T14:31:20.061Z,5.43
2023-02-12T14:34:21.517Z,6.27
2023-02-12T14:37:35.963Z,6.17
2023-02-12T14:40:42.660Z,6.97
2023-02-12T14:44:01.980Z,6.83
2023-02-12T14:47:17.210Z,6.63
2023-02-12T14:50:41.138Z,7.17
2023-02-12T14:53:46.671Z,7.07
2023-02-12T14:56:50.238Z,7.33
2023-02-12T15:00:05.107Z,6.30
2023-02-12T15:03:12.352Z,6.90
2023-02-12T15:06:19.131Z,5.20
2023-02-12T15:09:51.217Z,6.13
2023-02-12T15:13:36.585Z,6.33
2023-02-12T15:17:11.909Z,6.23
2023-02-12T15:20:22.665Z,5.83
2023-02-12T15:23:39.075Z,5.33
2023-02-12T15:27:00.872Z,7.10
2023-02-12T15:30:02.298Z,6.33
2023-02-12T15:33:07.002Z,5.93
2023-02-12T15:36:10.590Z,6.03
2023-02-12T15:39:20.534Z,6.10
2023-02-12T15:42:29.326Z,6.67
2023-02-12T15:45:36.371Z,5.70
2023-02-12T15:48:38.722Z,6.17
2023-02-12T15:51:41.611Z,6.13
2023-02-12T15:54:45.457Z,7.33
2023-02-12T15:57:50.662Z,5.77
2023-02-12T16:00:54.036Z,5.90
2023-02-12T16:03:58.888Z,5.73
2023-02-12T16:07:01.568Z,5.93
2023-02-12T16:10:04.803Z,5.60
2023-02-12T16:13:06.267Z,6.10
2023-02-12T16:16:17.209Z,5.57
2023-02-12T16:19:36.884Z,5.57
2023-02-12T16:22:41.339Z,5.97
2023-02-12T16:25:42.787Z,6.93
2023-02-12T16:28:50.493Z,5.90
2023-02-12T16:31:54.628Z,8.23
2023-02-12T16:35:02.346Z,6.47
2023-02-12T16:38:29.346Z,6.10
2023-02-12T16:41:56.682Z,6.40
2023-02-12T16:44:58.091Z,6.63
2023-02-12T16:48:08.414Z,5.90
2023-02-12T16:51:22.086Z,5.90
2023-02-12T16:54:34.906Z,4.63
2023-02-12T16:57:36.318Z,5.33
2023-02-12T17:00:38.900Z,5.57
2023-02-12T17:03:40.485Z,5.90
2023-02-12T17:06:43.455Z,5.53
2023-02-12T17:09:44.962Z,6.13
2023-02-12T17:12:46.917Z,6.77
2023-02-12T17:15:58.450Z,6.97
2023-02-12T17:19:00.900Z,6.70
2023-02-12T17:22:03.916Z,6.17
2023-02-12T17:25:05.655Z,6.50
2023-02-12T17:28:08.714Z,6.57
2023-02-12T17:31:10.740Z,7.13
2023-02-12T17:34:12.193Z,7.33
2023-02-12T17:37:13.609Z,8.73
2023-02-12T17:40:14.987Z,8.90
2023-02-12T17:43:16.622Z,8.47
2023-02-12T17:46:20.800Z,12.67
2023-02-12T17:49:22.663Z,15.40
2023-02-12T17:52:24.085Z,17.70
2023-02-12T17:55:25.467Z,15.90
2023-02-12T17:58:26.849Z,16.00
2023-02-12T18:01:28.535Z,15.67
2023-02-12T18:04:35.587Z,14.07
2023-02-12T18:07:37.386Z,14.33
2023-02-12T18:10:41.141Z,14.07
2023-02-12T18:13:42.544Z,14.60
2023-02-12T18:16:44.207Z,14.40
2023-02-12T18:19:45.739Z,14.47
2023-02-12T18:22:47.345Z,14.93
2023-02-12T18:25:48.806Z,14.20
2023-02-12T18:28:50.373Z,14.87
2023-02-12T18:31:54.832Z,14.83
2023-02-12T18:34:56.279Z,13.87
2023-02-12T18:37:57.992Z,14.83
2023-02-12T18:41:02.133Z,15.53
2023-02-12T18:44:05.207Z,16.80
2023-02-12T18:47:06.580Z,17.03
2023-02-12T18:50:08.625Z,16.00
2023-02-12T18:53:10.165Z,15.67
2023-02-12T18:56:12.659Z,16.63
2023-02-12T18:59:15.534Z,16.97
2023-02-12T19:02:16.943Z,16.57
2023-02-12T19:05:18.472Z,16.77
2023-02-12T19:08:19.932Z,16.60
2023-02-12T19:11:21.430Z,15.30
2023-02-12T19:14:24.276Z,13.43
2023-02-12T19:17:25.737Z,12.27
2023-02-12T19:20:27.150Z,10.83
2023-02-12T19:23:28.570Z,11.10
2023-02-12T19:26:30.892Z,11.13
2023-02-12T19:29:32.355Z,10.93
2023-02-12T19:32:36.081Z,9.93
2023-02-12T19:35:37.477Z,10.50
2023-02-12T19:38:39.258Z,11.03
2023-02-12T19:41:41.211Z,10.70
2023-02-12T19:44:44.371Z,10.10
2023-02-12T19:47:46.497Z,10.57
2023-02-12T19:50:47.868Z,11.50
2023-02-12T19:53:49.315Z,11.77
2023-02-12T19:56:51.941Z,11.40
2023-02-12T19:59:53.476Z,10.77
2023-02-12T20:02:54.872Z,10.87
2023-02-12T20:06:01.570Z,11.73
2023-02-12T20:09:04.478Z,12.23
2023-02-12T20:12:06.344Z,11.23
2023-02-12T20:15:08.168Z,12.50
2023-02-12T20:18:10.482Z,11.27
2023-02-12T20:21:15.272Z,12.17
2023-02-12T20:24:16.749Z,12.00
2023-02-12T20:27:18.233Z,12.07
2023-02-12T20:30:20.258Z,12.17
2023-02-12T20:33:21.799Z,12.17
2023-02-12T20:36:24.638Z,11.80
2023-02-12T20:39:26.098Z,11.20
2023-02-12T20:42:27.545Z,11.27
2023-02-12T20:45:28.967Z,10.77
2023-02-12T20:48:30.842Z,10.90
2023-02-12T20:51:32.512Z,10.73
2023-02-12T20:54:33.894Z,10.73
2023-02-12T20:57:35.301Z,10.43
2023-02-12T21:00:36.694Z,11.80
2023-02-12T21:03:38.674Z,11.50
2023-02-12T21:06:41.413Z,10.47
2023-02-12T21:09:42.865Z,11.40
2023-02-12T21:12:44.687Z,10.40
2023-02-12T21:15:46.168Z,9.97
2023-02-12T21:18:47.997Z,10.60
2023-02-12T21:21:49.582Z,10.20
2023-02-12T21:24:51.014Z,10.97
2023-02-12T21:27:52.382Z,10.67
2023-02-12T21:30:53.798Z,10.77
2023-02-12T21:33:56.664Z,10.37
2023-02-12T21:36:58.179Z,9.63
2023-02-12T21:39:59.677Z,9.83
2023-02-12T21:43:01.620Z,11.23
2023-02-12T21:46:03.253Z,11.00
2023-02-12T21:49:05.512Z,10.80
2023-02-12T21:52:07.000Z,11.13
2023-02-12T21:55:08.482Z,11.17
2023-02-12T21:58:10.748Z,11.77
2023-02-12T22:01:15.078Z,10.67
2023-02-12T22:04:18.007Z,11.07
2023-02-12T22:07:20.786Z,10.13
2023-02-12T22:10:22.165Z,9.60
2023-02-12T22:13:23.752Z,10.67
2023-02-12T22:16:27.770Z,10.70
2023-02-12T22:19:29.187Z,11.07
2023-02-12T22:22:30.601Z,10.77
2023-02-12T22:25:33.485Z,11.03
2023-02-12T22:28:42.434Z,11.20
2023-02-12T22:31:45.439Z,10.73
2023-02-12T22:34:46.877Z,11.30
2023-02-12T22:37:48.261Z,11.83
2023-02-12T22:40:52.709Z,11.60
2023-02-12T22:43:54.780Z,10.17
2023-02-12T22:46:56.310Z,10.63
2023-02-12T22:50:01.597Z,11.43
2023-02-12T22:53:02.983Z,10.40
2023-02-12T22:56:06.568Z,10.10
2023-02-12T22:59:09.688Z,10.77
2023-02-12T23:02:11.080Z,10.67
2023-02-12T23:05:12.885Z,11.10
2023-02-12T23:08:14.264Z,10.50
2023-02-12T23:11:15.640Z,11.27
2023-02-12T23:14:18.124Z,10.57
2023-02-12T23:17:19.522Z,10.87
2023-02-12T23:20:21.317Z,10.77
2023-02-12T23:23:22.777Z,11.30
2023-02-12T23:26:24.679Z,12.27
2023-02-12T23:29:26.176Z,12.13
2023-02-12T23:32:27.581Z,12.13
2023-02-12T23:35:28.968Z,11.60
2023-02-12T23:38:30.371Z,11.87
2023-02-12T23:41:31.920Z,12.23
2023-02-12T23:44:33.362Z,11.47
2023-02-12T23:47:35.105Z,11.73
2023-02-12T23:50:36.502Z,11.67
2023-02-12T23:53:37.916Z,11.37
2023-02-12T23:56:39.395Z,11.57
2023-02-12T23:59:40.808Z,11.77
